Great Bend, North Dakota
Current Conditions -  °F | °C
As of 2:35 PM on Friday 28 Nov 2014 (Local Time) from KBWP Reporting Station
Overcast Overcast  
Wind Chill:   Ceiling: 9000
Heat Index: 19°   Visibility: 10mi
Dew Point: 12°   Wind: 9mph
Humidity: 74%   Direction: 110°ESE
Pressure: 29.79"   Gusts: NA
Location:  46.15°N, 96.8°W
Report Text: KBWP 282035Z AUTO 11008KT 10SM SCT014 OVC090 M07/M11 A2979 RMK AO1
Loading
Personal Weather Stations






























Interactive Weather Map New forecast layout! Learn more

10-Day Weather Forecast

Advertisements
Track Severe Weather on mobile